createdAt,value
2022-12-24T00:54:58.249Z,26.98
2022-12-24T00:55:59.225Z,26.97
2022-12-24T00:56:59.206Z,26.95
2022-12-24T00:57:59.204Z,26.97
2022-12-24T00:58:59.193Z,26.97
2022-12-24T00:59:59.184Z,26.99
2022-12-24T01:00:59.237Z,26.97
2022-12-24T01:02:00.040Z,26.95
2022-12-24T01:02:59.394Z,26.98
2022-12-24T01:03:59.157Z,27.01
2022-12-24T01:04:59.164Z,27.01
2022-12-24T01:05:59.133Z,26.99
2022-12-24T01:06:59.181Z,26.98
2022-12-24T01:07:59.118Z,27.02
2022-12-24T01:08:59.104Z,27.01
2022-12-24T01:09:59.108Z,26.99
2022-12-24T01:10:59.128Z,26.99
2022-12-24T01:11:59.074Z,26.99
2022-12-24T01:12:59.078Z,27.02
2022-12-24T01:13:59.087Z,26.98
2022-12-24T01:14:59.054Z,27.04
2022-12-24T01:15:59.125Z,27.04
2022-12-24T01:16:59.034Z,27.02
2022-12-24T01:17:59.037Z,27.02
2022-12-24T01:18:59.032Z,27.01
2022-12-24T01:19:59.015Z,27.01
2022-12-24T01:20:59.005Z,27.02
2022-12-24T01:21:58.994Z,27.05
2022-12-24T01:22:59.012Z,27.06
2022-12-24T01:23:58.983Z,27.04
2022-12-24T01:24:58.970Z,26.99
2022-12-24T01:25:58.964Z,27.02
2022-12-24T01:26:58.981Z,27.02
2022-12-24T01:27:58.948Z,27.02
2022-12-24T01:28:58.940Z,27.01
2022-12-24T01:29:58.933Z,27.05
2022-12-24T01:30:58.981Z,27.01
2022-12-24T01:31:58.916Z,27.03
2022-12-24T01:32:58.916Z,27.05
2022-12-24T01:33:58.895Z,26.98
2022-12-24T01:34:58.894Z,27.01
2022-12-24T01:35:58.881Z,27.01
2022-12-24T01:36:58.867Z,27.02
2022-12-24T01:37:58.857Z,27.02
2022-12-24T01:38:58.858Z,27.00
2022-12-24T01:39:58.849Z,27.06
2022-12-24T01:40:58.835Z,27.04
2022-12-24T01:41:58.829Z,27.02
2022-12-24T01:42:58.845Z,27.08
2022-12-24T01:43:58.816Z,27.07
2022-12-24T01:44:58.804Z,27.06
2022-12-24T01:45:58.860Z,27.06
2022-12-24T01:46:58.789Z,27.08
2022-12-24T01:47:58.789Z,27.03
2022-12-24T01:48:58.779Z,27.03
2022-12-24T01:49:58.761Z,27.07
2022-12-24T01:50:58.756Z,27.02
2022-12-24T01:51:58.746Z,27.02
2022-12-24T01:52:58.739Z,27.03
2022-12-24T04:03:57.888Z,27.17
2022-12-24T04:04:57.633Z,27.17
2022-12-24T04:05:57.619Z,27.14
2022-12-24T04:06:57.632Z,27.11
2022-12-24T04:07:57.596Z,27.12
2022-12-24T04:08:57.601Z,27.13
2022-12-24T04:09:57.579Z,27.14
2022-12-24T04:10:57.570Z,27.10
2022-12-24T04:11:57.564Z,27.16
2022-12-24T04:12:57.552Z,27.12
2022-12-24T04:13:57.549Z,27.17
2022-12-24T04:14:57.538Z,27.17
2022-12-24T04:15:57.534Z,27.14
2022-12-24T04:16:57.574Z,27.17
2022-12-24T04:17:57.520Z,27.14
2022-12-24T04:18:57.508Z,27.16
2022-12-24T04:19:57.505Z,27.13
2022-12-24T04:20:57.487Z,27.17
2022-12-24T04:21:57.493Z,27.20
2022-12-24T04:22:57.496Z,27.20
2022-12-24T04:23:57.470Z,27.20
2022-12-24T04:24:57.485Z,27.20
2022-12-24T04:25:57.444Z,27.18
2022-12-24T04:26:57.440Z,27.22
2022-12-24T04:27:57.432Z,27.20
2022-12-24T04:28:57.420Z,27.21
2022-12-24T04:29:57.421Z,27.17
2022-12-24T04:30:57.432Z,27.21
2022-12-24T04:31:57.461Z,27.20
2022-12-24T04:32:57.390Z,27.21
2022-12-24T04:33:57.379Z,27.21
2022-12-24T04:34:57.371Z,27.25
2022-12-24T04:35:57.367Z,27.21
2022-12-24T05:32:57.441Z,27.26
2022-12-24T09:43:54.779Z,27.22
2022-12-24T21:40:48.775Z,27.54
2022-12-24T21:41:48.769Z,27.46
2022-12-24T21:42:48.792Z,27.55
2022-12-24T21:43:48.759Z,27.47
2022-12-24T21:44:48.747Z,27.51
2022-12-24T21:45:48.808Z,27.50
2022-12-24T21:46:48.760Z,27.53
2022-12-24T21:47:48.716Z,27.47
2022-12-24T21:48:48.729Z,27.49
2022-12-24T21:49:48.733Z,27.49
2022-12-24T21:50:48.696Z,27.50
2022-12-24T21:51:48.880Z,27.49
2022-12-24T21:52:48.677Z,27.50
2022-12-24T21:53:48.674Z,27.51
2022-12-24T21:54:48.656Z,27.47
2022-12-24T21:55:48.657Z,27.46
2022-12-24T21:56:48.647Z,27.46
2022-12-24T21:57:48.638Z,27.51
2022-12-24T21:58:48.655Z,27.47
2022-12-24T21:59:48.618Z,27.50
2022-12-24T22:00:48.670Z,27.51
2022-12-24T22:01:48.763Z,27.51
2022-12-24T22:02:48.927Z,27.51
2022-12-24T22:03:48.699Z,27.51
2022-12-24T22:04:48.576Z,27.49
2022-12-24T22:05:48.577Z,27.46
2022-12-24T22:06:48.556Z,27.50
2022-12-24T22:07:48.566Z,27.48
2022-12-24T22:08:48.540Z,27.55
2022-12-24T22:09:48.534Z,27.54
2022-12-24T22:10:48.528Z,27.51
2022-12-24T22:11:53.798Z,27.48
2022-12-24T22:12:48.509Z,27.47
2022-12-24T22:13:48.518Z,27.53
2022-12-24T22:14:48.513Z,27.47
2022-12-24T22:15:48.498Z,27.46
2022-12-24T22:16:48.647Z,27.50
2022-12-24T22:17:48.477Z,27.53
2022-12-24T22:18:48.466Z,27.49
2022-12-24T22:19:48.455Z,27.47
2022-12-24T22:20:48.457Z,27.51
2022-12-24T22:21:48.436Z,27.49
2022-12-24T22:22:48.424Z,27.51
2022-12-24T22:23:48.419Z,27.51
2022-12-24T22:24:48.417Z,27.48
2022-12-24T22:25:48.422Z,27.48
2022-12-24T22:26:48.411Z,27.50
2022-12-24T22:27:48.387Z,27.46
2022-12-24T22:28:48.377Z,27.51
2022-12-24T22:29:48.382Z,27.53
2022-12-24T22:30:48.487Z,27.55
2022-12-24T22:31:48.356Z,27.54
2022-12-24T22:32:48.350Z,27.50
2022-12-24T22:33:48.337Z,27.51
2022-12-24T22:34:48.332Z,27.53
2022-12-24T22:35:48.321Z,27.54
2022-12-24T22:36:48.321Z,27.57
2022-12-24T22:37:48.303Z,27.49
2022-12-24T22:38:48.294Z,27.50
2022-12-24T22:39:48.314Z,27.51
2022-12-24T22:40:48.283Z,27.50
2022-12-24T22:42:48.275Z,27.53
2022-12-24T22:43:48.258Z,27.50
2022-12-24T22:44:48.248Z,27.50
2022-12-24T22:45:48.302Z,27.56
2022-12-24T22:46:48.266Z,27.50
2022-12-24T22:47:48.218Z,27.49
2022-12-24T22:48:48.227Z,27.57
2022-12-24T22:49:48.214Z,27.49
2022-12-24T22:50:48.195Z,27.50
2022-12-24T22:51:48.234Z,27.50
2022-12-24T22:52:48.190Z,27.49
2022-12-24T22:53:48.181Z,27.47
2022-12-24T22:54:48.171Z,27.49
2022-12-24T22:55:48.155Z,27.53
2022-12-24T22:56:48.144Z,27.50
2022-12-24T22:57:48.142Z,27.51
2022-12-24T22:58:48.127Z,27.52
2022-12-24T22:59:48.122Z,27.50
2022-12-24T23:00:48.111Z,27.49
2022-12-24T23:01:48.251Z,27.51
2022-12-24T23:02:48.309Z,27.49
2022-12-24T23:03:48.124Z,27.51
2022-12-24T23:04:48.076Z,27.50
2022-12-24T23:05:48.072Z,27.51
2022-12-24T23:06:48.069Z,27.46
2022-12-24T23:07:48.056Z,27.50
2022-12-24T23:08:48.056Z,27.51
2022-12-24T23:09:48.040Z,27.46
2022-12-24T23:10:48.044Z,27.53
2022-12-24T23:11:48.023Z,27.50
2022-12-24T23:12:48.016Z,27.53
2022-12-24T23:13:48.009Z,27.51
2022-12-24T23:14:47.995Z,27.47
2022-12-24T23:15:48.026Z,27.50
2022-12-24T23:16:47.979Z,27.51
2022-12-24T23:17:47.986Z,27.50
2022-12-24T23:18:47.992Z,27.54
2022-12-24T23:19:47.967Z,27.53
2022-12-24T23:20:47.948Z,27.51
2022-12-24T23:21:47.937Z,27.50
2022-12-24T23:22:47.931Z,27.57
2022-12-24T23:23:47.941Z,27.47
2022-12-24T23:24:47.918Z,27.53
2022-12-24T23:25:47.913Z,27.50
2022-12-24T23:26:47.897Z,27.53
2022-12-24T23:27:47.889Z,27.51
2022-12-24T23:28:47.878Z,27.53
2022-12-24T23:29:47.870Z,27.51
2022-12-24T23:30:47.887Z,27.51
2022-12-24T23:31:47.855Z,27.54
2022-12-24T23:32:47.852Z,27.53
2022-12-24T23:33:47.836Z,27.48
2022-12-24T23:34:47.850Z,27.55
2022-12-24T23:35:47.821Z,27.51
2022-12-24T23:36:47.810Z,27.50
2022-12-24T23:37:47.807Z,27.54
2022-12-24T23:38:47.801Z,27.51
2022-12-24T23:39:47.790Z,27.54
2022-12-24T23:40:47.782Z,27.49
2022-12-24T23:41:47.767Z,27.53
2022-12-24T23:42:47.757Z,27.50
2022-12-24T23:43:47.753Z,27.54
2022-12-24T23:44:47.742Z,27.53
2022-12-24T23:45:47.734Z,27.50
2022-12-24T23:46:47.793Z,27.57
2022-12-24T23:47:47.723Z,27.53
2022-12-24T23:48:47.709Z,27.48
2022-12-24T23:49:47.703Z,27.53
2022-12-24T23:50:47.714Z,27.54
2022-12-24T23:51:47.691Z,27.51
2022-12-24T23:52:47.676Z,27.52
2022-12-24T23:53:47.668Z,27.58
2022-12-24T23:54:47.664Z,27.53
2022-12-24T23:55:47.646Z,27.54
2022-12-24T23:56:47.647Z,27.53
2022-12-24T23:57:47.641Z,27.54
2022-12-24T23:58:47.624Z,27.55
2022-12-24T23:59:47.617Z,27.53
